createdAt,value
2018-12-12T00:00:58.623Z,0.50
2018-12-12T00:03:29.695Z,0.60
2018-12-12T00:06:00.929Z,0.60
2018-12-12T00:08:29.949Z,0.40
2018-12-12T00:10:58.940Z,0.20
2018-12-12T00:13:27.936Z,0.20
2018-12-12T00:15:57.091Z,0.10
2018-12-12T00:18:26.071Z,0.10
2018-12-12T00:20:55.085Z,0.00
2018-12-12T00:23:24.122Z,0.00
2018-12-12T00:25:53.133Z,0.00
2018-12-12T00:28:22.251Z,0.10
2018-12-12T00:30:51.262Z,0.30
2018-12-12T00:33:20.290Z,0.30
2018-12-12T00:35:49.329Z,0.20
2018-12-12T00:38:18.322Z,0.10
2018-12-12T00:40:47.515Z,0.10
2018-12-12T00:43:16.521Z,0.10
2018-12-12T00:45:45.515Z,0.20
2018-12-12T00:48:14.667Z,0.20
2018-12-12T00:50:44.647Z,0.00
2018-12-12T00:53:13.769Z,-0.10
2018-12-12T00:55:42.794Z,-0.10
2018-12-12T00:58:11.777Z,0.00
2018-12-12T01:00:40.806Z,-0.10
2018-12-12T01:03:09.802Z,-0.10
2018-12-12T01:05:38.906Z,-0.10
2018-12-12T01:08:07.911Z,-0.10
2018-12-12T01:10:36.918Z,-0.10
2018-12-12T01:13:05.951Z,-0.20
2018-12-12T01:15:35.958Z,-0.20
2018-12-12T01:18:05.197Z,-0.20
2018-12-12T01:20:34.193Z,-0.10
2018-12-12T01:23:03.213Z,0.00
2018-12-12T01:25:32.258Z,0.00
2018-12-12T01:28:01.266Z,0.00
2018-12-12T01:30:30.380Z,-0.10
2018-12-12T01:32:59.402Z,-0.30
2018-12-12T01:35:28.394Z,-0.20
2018-12-12T01:37:58.446Z,-0.20
2018-12-12T01:40:27.438Z,-0.20
2018-12-12T01:42:56.527Z,-0.30
2018-12-12T01:45:25.548Z,-0.30
2018-12-12T01:47:54.558Z,-0.30
2018-12-12T01:50:23.630Z,-0.40
2018-12-12T01:52:52.634Z,-0.50
2018-12-12T01:55:21.674Z,-0.40
2018-12-12T01:57:50.683Z,-0.40
2018-12-12T02:00:19.714Z,-0.50
2018-12-12T02:02:48.706Z,-0.50
2018-12-12T02:05:17.723Z,-0.50
2018-12-12T02:07:47.027Z,-0.40
2018-12-12T02:10:16.043Z,-0.30
2018-12-12T02:12:53.401Z,-0.20
2018-12-12T02:15:22.407Z,-0.30
2018-12-12T02:17:51.433Z,-0.30
2018-12-12T02:20:20.441Z,-0.30
2018-12-12T02:22:49.459Z,-0.20
2018-12-12T02:25:18.522Z,-0.20
2018-12-12T02:27:47.566Z,-0.20
2018-12-12T02:30:16.559Z,-0.20
2018-12-12T02:32:45.568Z,-0.20
2018-12-12T02:35:17.502Z,-0.10
2018-12-12T02:37:46.543Z,0.10
2018-12-12T02:40:15.531Z,0.10
2018-12-12T02:42:44.531Z,0.20
2018-12-12T02:45:13.535Z,0.10
2018-12-12T02:47:42.525Z,0.20
2018-12-12T02:50:11.529Z,0.20
2018-12-12T02:52:40.512Z,0.30
2018-12-12T02:55:09.531Z,0.30
2018-12-12T02:57:38.615Z,0.30
2018-12-12T03:00:08.698Z,0.30
2018-12-12T03:02:38.690Z,0.30
2018-12-12T03:05:07.865Z,0.40
2018-12-12T03:07:36.912Z,0.40
2018-12-12T03:10:06.098Z,0.40
2018-12-12T03:12:35.107Z,0.50
2018-12-12T03:15:05.298Z,0.60
2018-12-12T03:17:34.505Z,0.60
2018-12-12T03:20:03.847Z,0.60
2018-12-12T03:22:32.863Z,0.80
2018-12-12T03:25:02.024Z,0.80
2018-12-12T03:27:31.043Z,0.90
2018-12-12T03:30:00.070Z,0.90
2018-12-12T03:32:29.087Z,0.90
2018-12-12T03:34:58.102Z,1.00
2018-12-12T03:37:27.154Z,1.00
2018-12-12T03:39:56.394Z,1.00
2018-12-12T03:42:25.968Z,0.90
2018-12-12T03:44:54.968Z,0.80
2018-12-12T03:47:23.966Z,0.70
2018-12-12T03:49:52.979Z,0.70
2018-12-12T03:52:21.996Z,0.80
2018-12-12T03:54:51.002Z,0.80
2018-12-12T03:57:19.996Z,0.80
2018-12-12T03:59:49.039Z,0.80
2018-12-12T04:02:19.886Z,0.80
2018-12-12T04:04:48.916Z,0.80
2018-12-12T04:07:17.973Z,0.90
2018-12-12T04:09:46.985Z,0.90
2018-12-12T04:12:16.026Z,0.80
2018-12-12T04:14:45.046Z,0.90
2018-12-12T04:17:14.098Z,0.80
2018-12-12T04:19:43.276Z,0.80
2018-12-12T04:22:14.625Z,0.80
2018-12-12T04:24:43.906Z,0.90
2018-12-12T04:27:12.928Z,0.90
2018-12-12T04:29:41.947Z,1.00
2018-12-12T04:32:10.955Z,1.00
2018-12-12T04:34:39.954Z,1.10
2018-12-12T04:37:08.975Z,1.10
2018-12-12T04:39:38.021Z,1.10
2018-12-12T04:42:07.055Z,1.20
2018-12-12T04:44:36.077Z,1.20
2018-12-12T04:47:05.200Z,1.30
2018-12-12T04:49:34.251Z,1.40
2018-12-12T04:52:03.278Z,1.50
2018-12-12T04:54:32.285Z,1.50
2018-12-12T04:57:01.344Z,1.60
2018-12-12T04:59:30.360Z,1.60
2018-12-12T05:01:59.415Z,1.60
2018-12-12T05:04:28.466Z,1.80
2018-12-12T05:06:57.510Z,1.90
2018-12-12T05:09:26.528Z,1.90
2018-12-12T05:11:55.566Z,1.80
2018-12-12T05:14:24.582Z,1.80
2018-12-12T05:16:53.939Z,1.90
2018-12-12T05:19:22.974Z,1.90
2018-12-12T05:21:51.991Z,1.90
2018-12-12T05:24:21.015Z,1.80
2018-12-12T05:26:50.020Z,1.80
2018-12-12T05:29:19.038Z,1.80
2018-12-12T05:31:48.042Z,1.80
2018-12-12T05:34:17.059Z,1.80
2018-12-12T05:36:48.086Z,1.80
2018-12-12T05:39:17.108Z,1.90
2018-12-12T05:41:46.139Z,1.80
2018-12-12T05:44:15.131Z,1.80
2018-12-12T05:46:44.169Z,1.70
2018-12-12T05:49:13.166Z,1.70
2018-12-12T05:51:42.189Z,1.70
2018-12-12T05:54:11.208Z,1.70
2018-12-12T05:56:40.242Z,1.70
2018-12-12T05:59:09.256Z,1.70
2018-12-12T06:01:38.393Z,1.60
2018-12-12T06:04:07.517Z,1.60
2018-12-12T06:06:36.547Z,1.60
2018-12-12T06:09:08.138Z,1.60
2018-12-12T06:11:37.133Z,1.50
2018-12-12T06:14:06.164Z,1.40
2018-12-12T06:16:35.183Z,1.40
2018-12-12T06:19:04.312Z,1.30
2018-12-12T06:21:34.198Z,1.20
2018-12-12T06:24:03.335Z,1.20
2018-12-12T06:26:37.241Z,1.20
2018-12-12T06:29:03.543Z,1.10
2018-12-12T06:31:32.558Z,1.10
2018-12-12T06:34:01.579Z,1.00
2018-12-12T06:36:30.586Z,1.00
2018-12-12T06:38:59.590Z,0.90
2018-12-12T06:41:28.651Z,0.80
2018-12-12T06:43:57.670Z,0.80
2018-12-12T06:46:26.663Z,0.80
2018-12-12T06:48:55.686Z,0.90
2018-12-12T06:51:24.819Z,0.80
2018-12-12T06:53:53.806Z,0.90
2018-12-12T06:56:22.834Z,1.00
2018-12-12T06:58:51.836Z,0.90
2018-12-12T07:01:20.889Z,0.90
2018-12-12T07:03:49.910Z,0.90
2018-12-12T07:06:18.923Z,0.80
2018-12-12T07:08:47.942Z,0.80
2018-12-12T07:11:16.952Z,0.80
2018-12-12T07:13:45.941Z,0.70
2018-12-12T07:16:15.323Z,0.70
2018-12-12T07:18:44.346Z,0.70
2018-12-12T07:21:13.326Z,0.70
2018-12-12T07:23:42.364Z,0.90
2018-12-12T07:26:11.474Z,1.00
2018-12-12T07:28:40.491Z,1.10
2018-12-12T07:31:09.576Z,1.10
2018-12-12T07:33:38.569Z,1.00
2018-12-12T07:36:07.597Z,1.00
2018-12-12T07:38:36.601Z,1.00
2018-12-12T07:41:05.638Z,1.00
2018-12-12T07:43:36.671Z,1.00
2018-12-12T07:46:22.901Z,1.00
2018-12-12T07:48:53.969Z,1.10
2018-12-12T07:51:39.881Z,1.10
2018-12-12T07:54:12.743Z,1.20
2018-12-12T07:56:41.771Z,1.30
2018-12-12T07:59:10.798Z,1.40
2018-12-12T08:01:39.807Z,1.50
2018-12-12T08:04:09.829Z,1.50
2018-12-12T08:06:38.854Z,1.50
2018-12-12T08:09:08.289Z,1.50
2018-12-12T08:11:39.339Z,1.60
2018-12-12T08:14:08.418Z,1.60
2018-12-12T08:16:37.719Z,1.70
2018-12-12T08:19:06.734Z,1.70
2018-12-12T08:21:35.753Z,1.70
2018-12-12T08:24:04.790Z,1.60
2018-12-12T08:26:33.836Z,1.70
2018-12-12T08:29:02.870Z,1.80
2018-12-12T08:31:31.890Z,1.80
2018-12-12T08:34:01.037Z,1.90
2018-12-12T08:36:30.039Z,1.90
2018-12-12T08:38:59.059Z,2.00
2018-12-12T08:41:28.075Z,2.20
2018-12-12T08:43:57.107Z,2.50
2018-12-12T08:46:26.103Z,3.00
2018-12-12T08:48:55.118Z,3.80
2018-12-12T08:51:24.133Z,4.70
2018-12-12T08:53:53.277Z,5.50
2018-12-12T08:56:22.277Z,5.80
2018-12-12T08:58:51.284Z,6.30
2018-12-12T09:01:20.313Z,6.30
2018-12-12T09:03:49.335Z,6.60
2018-12-12T09:06:18.451Z,6.30
2018-12-12T09:08:47.490Z,5.90
2018-12-12T09:11:16.482Z,5.40
2018-12-12T09:13:45.495Z,4.90
2018-12-12T09:16:14.844Z,4.60
2018-12-12T09:18:43.811Z,4.40
2018-12-12T09:21:12.823Z,4.30
2018-12-12T09:23:41.856Z,4.10
2018-12-12T09:26:10.883Z,4.00
2018-12-12T09:28:40.000Z,3.90
2018-12-12T09:31:10.998Z,3.90
2018-12-12T09:33:41.985Z,3.90
2018-12-12T09:36:12.687Z,3.90
2018-12-12T09:38:41.744Z,3.90
2018-12-12T09:41:10.772Z,3.90
2018-12-12T09:43:39.811Z,3.90
2018-12-12T09:46:08.807Z,3.80
2018-12-12T09:48:37.814Z,3.90
2018-12-12T09:51:07.485Z,3.90
2018-12-12T09:53:38.604Z,3.90
2018-12-12T09:56:07.667Z,3.90
2018-12-12T09:58:36.682Z,3.80
2018-12-12T10:01:06.399Z,3.70
2018-12-12T10:03:35.544Z,3.70
2018-12-12T10:06:04.546Z,3.80
2018-12-12T10:08:33.551Z,3.90
2018-12-12T10:11:02.566Z,3.90
2018-12-12T10:13:31.618Z,3.90
2018-12-12T10:16:00.611Z,4.00
2018-12-12T10:18:29.723Z,4.00
2018-12-12T10:20:58.730Z,4.10
2018-12-12T10:23:27.755Z,4.10
2018-12-12T10:25:56.766Z,4.10
2018-12-12T10:28:25.798Z,4.00
2018-12-12T10:30:54.799Z,3.90
2018-12-12T10:33:23.794Z,3.90
2018-12-12T10:35:52.814Z,4.00
2018-12-12T10:38:21.887Z,4.00
2018-12-12T10:40:50.920Z,4.00
2018-12-12T10:43:19.947Z,4.00
2018-12-12T10:45:48.970Z,4.10
2018-12-12T10:48:19.984Z,4.10
2018-12-12T10:50:48.999Z,4.10
2018-12-12T10:53:18.063Z,4.20
2018-12-12T10:55:47.191Z,4.20
2018-12-12T10:58:16.233Z,4.20
2018-12-12T11:01:47.817Z,4.30
2018-12-12T11:04:18.545Z,4.40
2018-12-12T11:06:47.542Z,4.40
2018-12-12T11:09:16.592Z,4.50
2018-12-12T11:11:45.611Z,4.50
2018-12-12T11:14:14.681Z,4.50
2018-12-12T11:16:43.696Z,4.50
2018-12-12T11:19:12.684Z,4.50
2018-12-12T11:21:41.707Z,4.50
2018-12-12T11:24:10.714Z,4.50
2018-12-12T11:26:39.723Z,4.50
2018-12-12T11:29:08.793Z,4.60
2018-12-12T11:31:37.831Z,4.60
2018-12-12T11:34:06.842Z,4.60
2018-12-12T11:36:35.882Z,4.70
2018-12-12T11:39:05.974Z,4.70
2018-12-12T11:41:36.953Z,4.70
2018-12-12T11:44:05.954Z,4.70
2018-12-12T11:46:34.955Z,4.60
2018-12-12T11:49:03.963Z,4.70
2018-12-12T11:51:33.191Z,4.80
2018-12-12T11:54:02.197Z,4.80
2018-12-12T11:56:31.216Z,4.90
2018-12-12T11:59:00.240Z,4.90
2018-12-12T12:01:29.242Z,4.90
2018-12-12T12:03:58.263Z,4.80
2018-12-12T12:06:27.286Z,4.90
2018-12-12T12:08:56.333Z,5.00
2018-12-12T12:11:25.347Z,5.00
2018-12-12T12:13:56.358Z,5.00
2018-12-12T12:16:25.376Z,5.00
2018-12-12T12:18:55.440Z,5.00
2018-12-12T12:21:24.477Z,5.00
2018-12-12T12:23:53.493Z,5.00
2018-12-12T12:26:22.634Z,5.00
2018-12-12T12:28:51.799Z,4.90
2018-12-12T12:31:21.138Z,4.90
2018-12-12T12:33:50.478Z,5.00
2018-12-12T12:36:19.495Z,5.10
2018-12-12T12:38:48.524Z,5.20
2018-12-12T12:41:17.575Z,5.30
2018-12-12T12:43:46.615Z,5.40
2018-12-12T12:46:15.672Z,5.90
2018-12-12T12:48:44.714Z,6.30
2018-12-12T12:51:13.759Z,6.40
2018-12-12T12:53:42.780Z,6.50
2018-12-12T12:56:11.796Z,6.40
2018-12-12T12:58:40.799Z,6.30
2018-12-12T13:01:09.787Z,6.30
2018-12-12T13:03:38.805Z,6.20
2018-12-12T13:06:07.823Z,6.20
2018-12-12T13:08:36.838Z,6.10
2018-12-12T13:11:05.859Z,6.00
2018-12-12T13:13:34.894Z,5.80
2018-12-12T13:16:03.963Z,5.60
2018-12-12T13:18:32.990Z,5.50
2018-12-12T13:21:02.010Z,5.30
2018-12-12T13:23:31.016Z,5.30
2018-12-12T13:26:00.066Z,5.30
2018-12-12T13:28:29.098Z,5.20
2018-12-12T13:30:58.122Z,5.10
2018-12-12T13:33:27.151Z,5.10
2018-12-12T13:35:56.162Z,5.00
2018-12-12T13:38:25.182Z,5.00
2018-12-12T13:40:54.327Z,5.00
2018-12-12T13:43:23.351Z,4.90
2018-12-12T13:45:52.439Z,4.90
2018-12-12T13:48:21.467Z,4.90
2018-12-12T13:50:50.459Z,4.80
2018-12-12T13:53:19.486Z,4.80
2018-12-12T13:55:48.531Z,4.80
2018-12-12T13:58:17.526Z,4.90
2018-12-12T14:00:46.508Z,4.90
2018-12-12T14:03:15.535Z,4.80
2018-12-12T14:05:44.553Z,4.90
2018-12-12T14:08:13.556Z,4.80
2018-12-12T14:10:42.559Z,4.80
2018-12-12T14:13:11.573Z,4.80
2018-12-12T14:15:40.707Z,4.80
2018-12-12T14:18:09.735Z,4.70
2018-12-12T14:20:38.784Z,4.70
2018-12-12T14:23:07.826Z,4.70
2018-12-12T14:25:36.959Z,4.70
2018-12-12T14:28:05.966Z,4.70
2018-12-12T14:30:35.035Z,4.70
2018-12-12T14:33:04.169Z,4.70
2018-12-12T14:35:33.208Z,4.70
2018-12-12T14:38:02.218Z,4.60
2018-12-12T14:40:31.226Z,4.60
2018-12-12T14:43:00.282Z,4.60
2018-12-12T14:45:29.263Z,4.60
2018-12-12T14:47:58.282Z,4.60
2018-12-12T14:50:27.333Z,4.60
2018-12-12T14:52:56.381Z,4.50
2018-12-12T14:55:25.456Z,4.50
2018-12-12T14:57:54.514Z,4.50
2018-12-12T15:00:23.610Z,4.50
2018-12-12T15:02:52.776Z,4.40
2018-12-12T15:05:21.843Z,4.40
2018-12-12T15:07:50.899Z,4.40
2018-12-12T15:10:20.118Z,4.40
2018-12-12T15:12:49.130Z,4.40
2018-12-12T15:15:19.235Z,4.40
2018-12-12T15:17:48.239Z,4.30
2018-12-12T15:20:17.264Z,4.30
2018-12-12T15:22:46.259Z,4.20
2018-12-12T15:25:15.371Z,4.20
2018-12-12T15:27:44.373Z,4.10
2018-12-12T15:30:13.352Z,4.10
2018-12-12T15:32:42.455Z,4.00
2018-12-12T15:35:11.438Z,4.00
2018-12-12T15:37:40.515Z,4.00
2018-12-12T15:40:09.670Z,4.00
2018-12-12T15:42:38.702Z,4.00
2018-12-12T15:45:07.906Z,4.00
2018-12-12T15:47:36.926Z,3.90
2018-12-12T15:50:06.099Z,4.00
2018-12-12T15:52:35.155Z,4.00
2018-12-12T15:55:04.428Z,3.90
2018-12-12T15:57:33.501Z,3.90
2018-12-12T16:00:02.673Z,3.90
2018-12-12T16:02:31.731Z,3.80
2018-12-12T16:05:00.885Z,3.80
2018-12-12T16:07:29.974Z,3.80
2018-12-12T16:09:59.058Z,3.90
2018-12-12T16:12:28.069Z,3.80
2018-12-12T16:14:57.117Z,3.80
2018-12-12T16:17:27.139Z,3.80
2018-12-12T16:19:56.173Z,3.80
2018-12-12T16:22:25.231Z,3.80
2018-12-12T16:24:54.265Z,3.90
2018-12-12T16:27:23.292Z,3.80
2018-12-12T16:29:52.324Z,3.80
2018-12-12T16:32:21.380Z,3.80
2018-12-12T16:34:56.640Z,3.70
2018-12-12T16:37:25.811Z,3.70
2018-12-12T16:39:54.842Z,3.70
2018-12-12T16:42:23.892Z,3.70
2018-12-12T16:44:54.900Z,3.70
2018-12-12T16:47:40.977Z,3.70
2018-12-12T16:50:10.035Z,3.70
2018-12-12T16:52:39.074Z,3.80
2018-12-12T16:55:08.135Z,3.80
2018-12-12T16:57:37.178Z,3.70
2018-12-12T17:00:07.807Z,3.70
2018-12-12T17:02:36.897Z,3.70
2018-12-12T17:05:06.260Z,3.70
2018-12-12T17:07:36.282Z,3.70
2018-12-12T17:10:10.589Z,3.60
2018-12-12T17:12:37.787Z,3.60
2018-12-12T17:15:07.002Z,3.60
2018-12-12T17:17:36.063Z,3.50
2018-12-12T17:20:05.598Z,3.50
2018-12-12T17:22:35.005Z,3.40
2018-12-12T17:25:04.468Z,3.30
2018-12-12T17:27:33.582Z,3.30
2018-12-12T17:30:02.715Z,3.20
2018-12-12T17:32:32.771Z,3.20
2018-12-12T17:35:01.833Z,3.10
2018-12-12T17:37:31.949Z,3.00
2018-12-12T17:40:00.995Z,3.00
2018-12-12T17:42:36.788Z,2.80
2018-12-12T17:45:06.102Z,2.70
2018-12-12T17:47:35.187Z,2.60
2018-12-12T17:50:05.085Z,2.60
2018-12-12T17:52:34.125Z,2.50
2018-12-12T17:55:05.318Z,2.40
2018-12-12T17:57:34.426Z,2.30
2018-12-12T18:00:03.897Z,2.30
2018-12-12T18:02:34.933Z,2.30
2018-12-12T18:05:20.847Z,2.20
2018-12-12T18:07:49.884Z,2.10
2018-12-12T18:10:18.933Z,2.10
2018-12-12T18:12:47.952Z,2.00
2018-12-12T18:15:17.015Z,2.00
2018-12-12T18:17:48.025Z,2.00
2018-12-12T18:20:17.066Z,1.90
2018-12-12T18:22:47.139Z,1.80
2018-12-12T18:25:18.172Z,1.70
2018-12-12T18:27:47.235Z,1.70
2018-12-12T18:30:16.330Z,1.70
2018-12-12T18:32:47.366Z,1.60
2018-12-12T18:35:22.171Z,1.50
2018-12-12T18:37:51.206Z,1.40
2018-12-12T18:40:20.294Z,1.40
2018-12-12T18:42:51.404Z,1.30
2018-12-12T18:45:20.443Z,1.30
2018-12-12T18:47:49.713Z,1.30
2018-12-12T18:50:20.806Z,1.20
2018-12-12T18:52:51.983Z,1.10
2018-12-12T18:55:21.015Z,1.10
2018-12-12T18:57:52.066Z,1.10
2018-12-12T19:00:21.248Z,1.00
2018-12-12T19:02:50.355Z,1.00
2018-12-12T19:05:19.628Z,1.00
2018-12-12T19:07:48.693Z,0.90
2018-12-12T19:10:17.720Z,0.90
2018-12-12T19:12:47.640Z,0.90
2018-12-12T19:15:16.762Z,1.00
2018-12-12T19:17:45.847Z,1.00
2018-12-12T19:20:16.052Z,0.90
2018-12-12T19:22:45.087Z,0.90
2018-12-12T19:25:14.316Z,0.80
2018-12-12T19:27:43.306Z,0.80
2018-12-12T19:30:12.349Z,0.80
2018-12-12T19:32:41.439Z,0.80
2018-12-12T19:35:11.471Z,0.70
2018-12-12T19:37:40.547Z,0.70
2018-12-12T19:40:09.819Z,0.60
2018-12-12T19:42:38.961Z,0.60
2018-12-12T19:45:08.498Z,0.60
2018-12-12T19:47:37.562Z,0.70
2018-12-12T19:50:07.556Z,0.50
2018-12-12T19:52:36.672Z,0.50
2018-12-12T19:55:05.874Z,0.40
2018-12-12T19:57:34.924Z,0.30
2018-12-12T20:00:04.899Z,0.20
2018-12-12T20:02:33.960Z,0.20
2018-12-12T20:05:03.131Z,0.10
2018-12-12T20:07:32.203Z,0.10
2018-12-12T20:10:01.290Z,0.10
2018-12-12T20:12:30.352Z,0.00
2018-12-12T20:14:59.438Z,-0.20
2018-12-12T20:17:28.478Z,-0.20
2018-12-12T20:19:57.518Z,-0.20
2018-12-12T20:22:26.563Z,-0.30
2018-12-12T20:24:55.626Z,-0.30
2018-12-12T20:27:24.715Z,-0.40
2018-12-12T20:29:54.831Z,-0.30
2018-12-12T20:32:23.896Z,-0.30
2018-12-12T20:34:52.949Z,-0.20
2018-12-12T20:37:21.966Z,-0.30
2018-12-12T20:39:51.015Z,-0.30
2018-12-12T20:42:20.088Z,-0.20
2018-12-12T20:44:49.155Z,-0.10
2018-12-12T20:47:18.194Z,0.00
2018-12-12T20:49:47.280Z,0.20
2018-12-12T20:52:16.299Z,0.20
2018-12-12T20:54:45.383Z,0.10
2018-12-12T20:57:14.429Z,0.10
2018-12-12T20:59:45.860Z,0.10
2018-12-12T21:02:14.467Z,0.20
2018-12-12T21:04:43.530Z,0.40
2018-12-12T21:07:12.577Z,0.40
2018-12-12T21:09:41.637Z,0.40
2018-12-12T21:12:10.710Z,0.50
2018-12-12T21:14:39.766Z,0.50
2018-12-12T21:17:08.804Z,0.70
2018-12-12T21:19:37.850Z,0.80
2018-12-12T21:22:06.942Z,0.90
2018-12-12T21:24:36.998Z,1.00
2018-12-12T21:27:06.080Z,1.10
2018-12-12T21:29:35.172Z,1.10
2018-12-12T21:32:04.679Z,1.10
2018-12-12T21:34:33.712Z,1.20
2018-12-12T21:37:02.762Z,1.20
2018-12-12T21:39:32.098Z,1.20
2018-12-12T21:42:01.129Z,1.20
2018-12-12T21:44:30.204Z,1.30
2018-12-12T21:47:02.424Z,1.40
2018-12-12T21:49:31.452Z,1.40
2018-12-12T21:52:00.474Z,1.50
2018-12-12T21:54:29.463Z,1.50
2018-12-12T21:56:58.547Z,1.70
2018-12-12T21:59:27.599Z,1.70
2018-12-12T22:01:56.636Z,1.80
2018-12-12T22:04:26.611Z,1.80
2018-12-12T22:06:55.650Z,1.80
2018-12-12T22:09:24.685Z,1.90
2018-12-12T22:11:53.710Z,1.90
2018-12-12T22:14:22.870Z,2.00
2018-12-12T22:16:52.954Z,2.10
2018-12-12T22:19:21.963Z,2.20
2018-12-12T22:21:50.971Z,2.30
2018-12-12T22:24:20.018Z,2.30
2018-12-12T22:26:49.165Z,2.40
2018-12-12T22:29:18.137Z,2.40
2018-12-12T22:31:47.203Z,2.50
2018-12-12T22:34:16.207Z,2.50
2018-12-12T22:36:45.243Z,2.60
2018-12-12T22:39:14.392Z,2.60
2018-12-12T22:41:43.388Z,2.60
2018-12-12T22:44:12.408Z,2.60
2018-12-12T22:46:41.817Z,2.70
2018-12-12T22:49:10.825Z,2.70
2018-12-12T22:51:40.004Z,2.70
2018-12-12T22:54:09.090Z,2.80
2018-12-12T22:56:38.155Z,2.80
2018-12-12T22:59:07.188Z,2.80
2018-12-12T23:01:36.278Z,2.90
2018-12-12T23:04:05.485Z,2.90
2018-12-12T23:06:34.509Z,2.90
2018-12-12T23:09:07.618Z,2.90
2018-12-12T23:11:36.822Z,2.90
2018-12-12T23:14:05.993Z,3.00
2018-12-12T23:16:35.014Z,3.00
2018-12-12T23:19:04.190Z,3.00
2018-12-12T23:21:33.255Z,3.00
2018-12-12T23:24:02.291Z,3.10
2018-12-12T23:26:31.638Z,3.10
2018-12-12T23:29:00.677Z,3.10
2018-12-12T23:31:29.734Z,3.10
2018-12-12T23:33:58.717Z,3.00
2018-12-12T23:36:27.747Z,3.00
2018-12-12T23:38:57.058Z,2.90
2018-12-12T23:41:26.075Z,2.80
2018-12-12T23:43:55.140Z,2.70
2018-12-12T23:46:24.124Z,2.70
2018-12-12T23:48:53.197Z,2.80
2018-12-12T23:51:22.387Z,2.80
2018-12-12T23:53:51.419Z,2.80
2018-12-12T23:56:20.423Z,2.80
2018-12-12T23:58:49.463Z,2.80
